Time;durP1;ratioP1;P1;durP2;ratioP2;P2;SDS_P1;SDS_P2;PMS_P1;PMS_P2;Temp;Humidity;BMP_temperature;BMP_pressure;BME280_temperature;BME280_humidity;BME280_pressure;Samples;Min_cycle;Max_cycle;Signal;HPM_P1;HPM_P2
2021/03/14 00:02:18;;;;;;;2.90;1.50;;;3.80;99.90;;;;;;5063062;28;20670;-79
2021/03/14 00:04:44;;;;;;;2.40;1.97;;;3.80;99.90;;;;;;5065048;28;20257;-79
2021/03/14 00:07:09;;;;;;;4.40;1.60;;;3.80;99.90;;;;;;5066366;28;20440;-78
2021/03/14 00:09:36;;;;;;;2.30;1.67;;;3.80;99.90;;;;;;5066410;28;20205;-78
2021/03/14 00:12:02;;;;;;;2.63;1.87;;;3.80;99.90;;;;;;5059401;28;20224;-78
2021/03/14 00:14:28;;;;;;;2.43;1.70;;;3.80;99.90;;;;;;5066391;28;20412;-78
2021/03/14 00:16:54;;;;;;;3.03;1.67;;;3.80;99.90;;;;;;5066120;28;20414;-78
2021/03/14 00:19:20;;;;;;;5.90;2.00;;;3.80;99.90;;;;;;5068798;28;20686;-78
2021/03/14 00:21:46;;;;;;;3.63;1.80;;;3.70;99.90;;;;;;5067192;28;20221;-79
2021/03/14 00:24:12;;;;;;;2.70;2.00;;;3.70;99.90;;;;;;5058486;28;20417;-79
2021/03/14 00:26:38;;;;;;;1.97;1.70;;;3.60;99.90;;;;;;5067154;28;20430;-78
2021/03/14 00:29:06;;;;;;;2.83;2.17;;;3.60;99.90;;;;;;5064293;28;20225;-78
2021/03/14 00:31:32;;;;;;;2.30;1.83;;;3.60;99.90;;;;;;5066291;28;20213;-79
2021/03/14 00:33:58;;;;;;;3.90;2.07;;;3.60;99.90;;;;;;5066701;28;20909;-80
2021/03/14 00:36:24;;;;;;;2.17;2.00;;;3.60;99.90;;;;;;5044804;28;20940;-79
2021/03/14 00:38:49;;;;;;;5.63;2.73;;;3.60;99.90;;;;;;5050310;28;20198;-80
2021/03/14 00:41:15;;;;;;;2.53;2.23;;;3.60;99.90;;;;;;5065392;28;20707;-78
2021/03/14 00:43:41;;;;;;;2.63;1.67;;;3.50;99.90;;;;;;5064073;28;20588;-79
2021/03/14 00:46:06;;;;;;;2.87;2.00;;;3.50;99.90;;;;;;5070688;28;20186;-80
2021/03/14 00:48:32;;;;;;;2.37;2.00;;;3.50;99.90;;;;;;5064662;28;20245;-77
2021/03/14 00:50:58;;;;;;;2.60;1.57;;;3.50;99.90;;;;;;5072183;28;20205;-79
2021/03/14 00:53:24;;;;;;;2.73;1.57;;;3.50;99.90;;;;;;5051515;28;20477;-77
2021/03/14 00:55:49;;;;;;;3.37;1.40;;;3.50;99.90;;;;;;5073059;28;20622;-78
2021/03/14 00:58:15;;;;;;;4.13;1.73;;;3.50;99.90;;;;;;5062714;28;20217;-78
2021/03/14 01:00:41;;;;;;;2.80;1.70;;;3.60;99.90;;;;;;5063789;28;20421;-77
2021/03/14 01:03:07;;;;;;;4.37;1.60;;;3.50;99.90;;;;;;5070508;28;20209;-79
2021/03/14 01:05:32;;;;;;;3.87;1.67;;;3.60;99.90;;;;;;5065439;28;20528;-78
2021/03/14 01:07:58;;;;;;;1.80;1.50;;;3.60;99.90;;;;;;5072464;28;20541;-79
2021/03/14 01:10:24;;;;;;;2.77;1.70;;;3.60;99.90;;;;;;5064465;28;20188;-79
2021/03/14 01:12:50;;;;;;;1.50;1.40;;;3.60;99.90;;;;;;5075758;28;20206;-79
2021/03/14 01:15:16;;;;;;;4.00;1.40;;;3.60;99.90;;;;;;5047982;28;20860;-79
2021/03/14 01:17:42;;;;;;;4.93;1.77;;;3.70;99.90;;;;;;5066206;28;20202;-78
2021/03/14 01:20:15;;;;;;;1.90;1.30;;;3.70;99.90;;;;;;5073896;28;20423;-79
2021/03/14 01:22:41;;;;;;;3.70;1.67;;;3.70;99.90;;;;;;5053264;28;20417;-80
2021/03/14 01:25:08;;;;;;;2.50;1.43;;;3.70;99.90;;;;;;5079888;28;20442;-80
2021/03/14 01:27:34;;;;;;;3.30;1.57;;;3.70;99.90;;;;;;5082682;28;20186;-78
2021/03/14 01:29:59;;;;;;;3.53;1.40;;;3.70;99.90;;;;;;5081691;28;20449;-79
2021/03/14 01:32:25;;;;;;;1.80;1.17;;;3.70;99.90;;;;;;5069817;28;20217;-79
2021/03/14 01:34:50;;;;;;;2.70;1.77;;;3.80;99.90;;;;;;5069122;28;20187;-80
2021/03/14 01:37:18;;;;;;;3.70;1.87;;;3.80;99.90;;;;;;5071908;28;20574;-80
2021/03/14 01:39:46;;;;;;;1.37;1.23;;;3.80;99.90;;;;;;5075694;28;20260;-80
2021/03/14 01:42:12;;;;;;;1.90;1.70;;;3.80;99.90;;;;;;5075306;28;20417;-79
2021/03/14 01:44:41;;;;;;;3.77;1.87;;;3.80;99.90;;;;;;5086025;28;20440;-79
2021/03/14 01:47:08;;;;;;;5.50;2.30;;;3.80;99.90;;;;;;5082840;28;20413;-80
2021/03/14 01:49:33;;;;;;;2.50;1.33;;;3.80;99.90;;;;;;5085684;28;20415;-79
2021/03/14 01:51:59;;;;;;;1.33;1.23;;;3.80;99.90;;;;;;5075567;28;20475;-78
2021/03/14 01:54:25;;;;;;;3.20;1.43;;;3.80;99.90;;;;;;5062736;28;20186;-79
2021/03/14 01:56:51;;;;;;;2.70;1.80;;;3.80;99.90;;;;;;5076912;28;20421;-79
2021/03/14 01:59:16;;;;;;;2.67;1.70;;;3.80;99.90;;;;;;5074616;28;20220;-80
2021/03/14 02:01:42;;;;;;;4.10;2.07;;;3.80;99.90;;;;;;5075797;28;20197;-79
2021/03/14 02:04:09;;;;;;;4.17;1.97;;;3.80;99.90;;;;;;5076172;28;20186;-80
2021/03/14 02:06:34;;;;;;;4.13;1.60;;;3.90;99.90;;;;;;5071475;28;20467;-79
2021/03/14 02:09:00;;;;;;;2.03;1.90;;;3.90;99.90;;;;;;5072237;28;20452;-79
2021/03/14 02:11:30;;;;;;;2.63;1.73;;;3.90;99.90;;;;;;5072241;28;20220;-78
2021/03/14 02:13:59;;;;;;;3.07;2.30;;;3.80;99.90;;;;;;5080275;28;20178;-78
2021/03/14 02:16:32;;;;;;;5.00;1.70;;;3.80;99.90;;;;;;5078641;28;20416;-79
2021/03/14 02:19:00;;;;;;;2.70;1.80;;;3.80;99.90;;;;;;5076298;28;20471;-79
2021/03/14 02:21:30;;;;;;;1.67;1.57;;;3.80;99.90;;;;;;5073994;28;20451;-80
2021/03/14 02:24:05;;;;;;;3.23;2.37;;;3.80;99.90;;;;;;5067404;28;20433;-80
2021/03/14 02:26:43;;;;;;;2.63;2.10;;;3.80;99.90;;;;;;5077467;28;20415;-79
2021/03/14 02:29:17;;;;;;;2.53;1.90;;;3.70;99.90;;;;;;5076361;28;20471;-78
2021/03/14 02:31:45;;;;;;;2.83;1.63;;;3.70;99.90;;;;;;5073807;28;20466;-77
2021/03/14 02:34:14;;;;;;;2.57;1.97;;;3.70;99.90;;;;;;5075971;28;20423;-79
2021/03/14 02:36:43;;;;;;;4.40;2.47;;;3.60;99.90;;;;;;5071207;28;20444;-78
2021/03/14 02:39:13;;;;;;;2.70;1.87;;;3.70;99.90;;;;;;5078295;28;20440;-79
2021/03/14 02:41:40;;;;;;;2.93;2.03;;;3.70;99.90;;;;;;5063663;28;20508;-80
2021/03/14 02:44:08;;;;;;;4.03;2.50;;;3.70;99.90;;;;;;5064532;28;20417;-78
2021/03/14 02:46:35;;;;;;;5.00;3.03;;;3.80;99.90;;;;;;5065372;28;20463;-78
2021/03/14 02:49:01;;;;;;;2.87;2.07;;;3.80;99.90;;;;;;5069332;28;20471;-79
2021/03/14 02:51:27;;;;;;;5.60;2.53;;;3.80;99.90;;;;;;5077838;28;20451;-78
2021/03/14 02:53:54;;;;;;;4.10;2.50;;;3.90;99.90;;;;;;5071147;28;20417;-79
2021/03/14 02:56:21;;;;;;;5.53;3.20;;;3.90;99.90;;;;;;5063288;28;20428;-79
2021/03/14 02:58:48;;;;;;;4.00;2.70;;;3.90;99.90;;;;;;5070473;28;20490;-78
2021/03/14 03:01:15;;;;;;;3.73;2.23;;;3.90;99.90;;;;;;5052317;28;20428;-80
2021/03/14 03:03:41;;;;;;;2.80;2.50;;;3.90;99.90;;;;;;5070217;28;20428;-78
2021/03/14 03:06:08;;;;;;;3.97;2.40;;;3.90;99.90;;;;;;5063725;28;20428;-81
2021/03/14 03:08:36;;;;;;;6.93;3.20;;;3.90;99.90;;;;;;5071683;28;21056;-77
2021/03/14 03:11:08;;;;;;;4.10;2.30;;;4.00;99.90;;;;;;5065040;28;20824;-81
2021/03/14 03:13:36;;;;;;;3.13;1.80;;;4.00;99.90;;;;;;5073402;28;20965;-78
2021/03/14 03:16:05;;;;;;;4.43;2.93;;;4.00;99.90;;;;;;5047003;28;20522;-76
2021/03/14 03:18:31;;;;;;;3.33;2.23;;;4.00;99.90;;;;;;5068218;28;20850;-78
2021/03/14 03:20:57;;;;;;;2.80;2.27;;;4.00;99.90;;;;;;5068119;28;20413;-78
2021/03/14 03:23:23;;;;;;;6.20;2.60;;;4.00;99.90;;;;;;5066076;28;20429;-79
2021/03/14 03:25:49;;;;;;;2.97;2.40;;;3.90;99.90;;;;;;5067269;28;21712;-78
2021/03/14 03:28:15;;;;;;;3.23;2.53;;;3.90;99.90;;;;;;5049169;28;20475;-80
2021/03/14 03:30:44;;;;;;;2.70;1.70;;;3.90;99.90;;;;;;5071875;28;20186;-79
2021/03/14 03:33:10;;;;;;;3.90;2.47;;;3.90;99.90;;;;;;5068336;28;20466;-78
2021/03/14 03:35:36;;;;;;;3.13;2.03;;;4.00;99.90;;;;;;5073526;28;20492;-79
2021/03/14 03:38:02;;;;;;;2.17;1.97;;;4.00;99.90;;;;;;5073003;28;20462;-79
2021/03/14 03:40:30;;;;;;;4.10;2.27;;;4.00;99.90;;;;;;5076914;28;20832;-78
2021/03/14 03:43:34;;;;;;;3.67;2.30;;;4.00;99.90;;;;;;5072964;28;20427;-77
2021/03/14 03:46:04;;;;;;;3.00;2.70;;;4.00;99.90;;;;;;5070662;28;20419;-79
2021/03/14 03:48:46;;;;;;;2.00;1.80;;;3.90;99.90;;;;;;5067731;28;20441;-79
2021/03/14 03:51:16;;;;;;;6.13;2.17;;;4.00;99.90;;;;;;5069643;28;20420;-78
2021/03/14 03:53:42;;;;;;;3.27;2.07;;;3.90;99.90;;;;;;5070113;28;20945;-77
2021/03/14 03:56:10;;;;;;;3.17;2.80;;;3.90;99.90;;;;;;5077226;28;20783;-77
2021/03/14 03:58:36;;;;;;;2.63;2.30;;;3.90;99.90;;;;;;5076394;28;20451;-79
2021/03/14 04:01:03;;;;;;;5.93;2.73;;;3.90;99.90;;;;;;5077730;28;20806;-79
2021/03/14 04:03:34;;;;;;;3.60;2.97;;;3.90;99.90;;;;;;5053049;28;20441;-79
2021/03/14 04:06:01;;;;;;;3.57;2.60;;;3.90;99.90;;;;;;5069360;28;20534;-78
2021/03/14 04:08:29;;;;;;;3.30;2.37;;;3.80;99.90;;;;;;5078787;28;20444;-78
2021/03/14 04:10:56;;;;;;;3.27;1.63;;;3.80;99.90;;;;;;5068577;28;20423;-78
2021/03/14 04:13:22;;;;;;;2.33;1.93;;;3.80;99.90;;;;;;5053683;28;20492;-78
2021/03/14 04:15:48;;;;;;;4.60;3.10;;;3.80;99.90;;;;;;5069162;28;20442;-78
2021/03/14 04:18:15;;;;;;;7.33;2.20;;;3.80;99.90;;;;;;5078806;28;20452;-79
2021/03/14 04:20:41;;;;;;;3.70;2.00;;;3.70;99.90;;;;;;5070103;28;20558;-79
2021/03/14 04:23:13;;;;;;;2.87;1.93;;;3.70;99.90;;;;;;5062141;28;20489;-79
2021/03/14 04:25:40;;;;;;;2.50;1.93;;;3.70;99.90;;;;;;5062602;28;20431;-78
2021/03/14 04:28:06;;;;;;;6.20;2.50;;;3.70;99.90;;;;;;5064380;28;20510;-78
2021/03/14 04:30:33;;;;;;;7.20;2.60;;;3.70;99.90;;;;;;5068757;28;20416;-78
2021/03/14 04:33:00;;;;;;;2.93;1.97;;;3.60;99.90;;;;;;5063564;28;20944;-78
2021/03/14 04:35:26;;;;;;;2.10;1.83;;;3.60;99.90;;;;;;5066973;28;20481;-79
2021/03/14 04:37:54;;;;;;;3.00;2.70;;;3.60;99.90;;;;;;5066064;28;20473;-78
2021/03/14 04:40:21;;;;;;;4.10;2.07;;;3.60;99.90;;;;;;5049383;28;20721;-79
2021/03/14 04:42:49;;;;;;;2.80;1.83;;;3.60;99.90;;;;;;5072783;28;20781;-78
2021/03/14 04:45:16;;;;;;;3.40;2.20;;;3.50;99.90;;;;;;5061924;28;20419;-78
2021/03/14 04:47:43;;;;;;;4.70;2.07;;;3.60;99.90;;;;;;5065661;28;20420;-77
2021/03/14 04:50:11;;;;;;;2.17;1.50;;;3.60;99.90;;;;;;5065350;28;20416;-76
2021/03/14 04:52:38;;;;;;;3.20;2.10;;;3.60;99.90;;;;;;5062227;28;20519;-80
2021/03/14 04:55:06;;;;;;;3.80;1.47;;;3.60;99.90;;;;;;5057033;28;20438;-79
2021/03/14 04:57:32;;;;;;;3.97;2.20;;;3.60;99.90;;;;;;5071525;28;20412;-79
2021/03/14 05:00:02;;;;;;;4.23;3.83;;;3.50;99.90;;;;;;5065640;28;20439;-77
2021/03/14 05:02:31;;;;;;;2.70;1.63;;;3.60;99.90;;;;;;5060500;28;20469;-78
2021/03/14 05:04:59;;;;;;;3.10;1.90;;;3.60;99.90;;;;;;5068932;28;20418;-78
2021/03/14 05:07:26;;;;;;;2.40;2.00;;;3.60;99.90;;;;;;5052319;28;20420;-79
2021/03/14 05:09:53;;;;;;;2.50;1.60;;;3.60;99.90;;;;;;5073218;28;20809;-80
2021/03/14 05:12:19;;;;;;;1.80;1.50;;;3.60;99.90;;;;;;5054376;28;20524;-79
2021/03/14 05:14:45;;;;;;;2.03;1.83;;;3.60;99.90;;;;;;5072349;28;20444;-77
2021/03/14 05:17:12;;;;;;;2.60;1.87;;;3.70;99.90;;;;;;5067996;28;20412;-77
2021/03/14 05:19:38;;;;;;;2.00;1.80;;;3.60;99.90;;;;;;5072033;28;20440;-79
2021/03/14 05:22:03;;;;;;;1.53;1.43;;;3.60;99.90;;;;;;5068673;28;20845;-80
2021/03/14 05:24:30;;;;;;;1.50;1.10;;;3.60;99.90;;;;;;5061752;28;20882;-79
2021/03/14 05:26:57;;;;;;;2.60;1.80;;;3.60;99.90;;;;;;5048262;28;20189;-78
2021/03/14 05:29:24;;;;;;;1.70;1.60;;;3.60;99.90;;;;;;5065893;28;20475;-78
2021/03/14 05:31:50;;;;;;;1.83;1.57;;;3.60;99.90;;;;;;5069193;28;20492;-79
2021/03/14 05:34:17;;;;;;;1.50;1.40;;;3.70;99.90;;;;;;5067818;28;20424;-79
2021/03/14 05:36:43;;;;;;;1.63;1.40;;;3.60;99.90;;;;;;5060956;28;20467;-77
2021/03/14 05:39:10;;;;;;;2.33;1.87;;;3.60;99.90;;;;;;5075400;28;20440;-78
2021/03/14 05:41:37;;;;;;;2.00;1.40;;;3.70;99.90;;;;;;5067151;28;20425;-79
2021/03/14 05:44:03;;;;;;;3.60;2.23;;;3.60;99.90;;;;;;5066021;28;20459;-78
2021/03/14 05:46:29;;;;;;;1.50;1.40;;;3.60;99.90;;;;;;5068068;28;20417;-80
2021/03/14 05:48:55;;;;;;;1.60;1.40;;;3.60;99.90;;;;;;5060579;28;20448;-79
2021/03/14 05:51:29;;;;;;;2.53;1.50;;;3.60;99.90;;;;;;5073557;28;20929;-78
2021/03/14 05:53:57;;;;;;;4.53;1.90;;;3.50;99.90;;;;;;5062661;28;20257;-78
2021/03/14 05:56:23;;;;;;;3.97;2.57;;;3.50;99.90;;;;;;5076204;28;20504;-78
2021/03/14 05:58:50;;;;;;;6.43;2.20;;;3.50;99.90;;;;;;5069458;28;20437;-79
2021/03/14 06:01:18;;;;;;;3.63;2.53;;;3.50;99.90;;;;;;5071073;28;20412;-79
2021/03/14 06:03:45;;;;;;;4.63;2.07;;;3.40;99.90;;;;;;5070792;28;20450;-80
2021/03/14 06:06:13;;;;;;;4.93;3.00;;;3.50;99.90;;;;;;5067730;28;20840;-78
2021/03/14 06:08:40;;;;;;;4.20;2.43;;;3.50;99.90;;;;;;5071347;28;20451;-79
2021/03/14 06:11:06;;;;;;;3.80;2.37;;;3.40;99.90;;;;;;5068239;28;20491;-78
2021/03/14 06:13:33;;;;;;;2.97;1.87;;;3.50;99.90;;;;;;5072968;28;20468;-79
2021/03/14 06:15:59;;;;;;;2.43;2.30;;;3.40;99.90;;;;;;5052294;28;20425;-78
2021/03/14 06:18:26;;;;;;;1.90;1.80;;;3.50;99.90;;;;;;5074301;28;20455;-77
2021/03/14 06:20:52;;;;;;;2.23;2.03;;;3.40;99.90;;;;;;5075065;28;20258;-79
2021/03/14 06:23:19;;;;;;;3.10;1.73;;;3.50;99.90;;;;;;5063126;28;20463;-78
2021/03/14 06:25:47;;;;;;;3.17;2.27;;;3.50;99.90;;;;;;5070494;28;20427;-80
2021/03/14 06:28:14;;;;;;;2.80;2.00;;;3.60;99.90;;;;;;5070439;28;20479;-78
2021/03/14 06:30:40;;;;;;;3.00;2.00;;;3.60;99.90;;;;;;5068283;28;20420;-79
2021/03/14 06:33:10;;;;;;;2.60;2.13;;;3.60;99.90;;;;;;5069117;28;20829;-79
2021/03/14 06:35:45;;;;;;;2.87;2.40;;;3.60;99.90;;;;;;5071685;28;20894;-79
2021/03/14 06:38:31;;;;;;;4.13;2.27;;;3.60;99.90;;;;;;5072071;28;20507;-79
2021/03/14 06:40:59;;;;;;;3.70;2.30;;;3.80;99.90;;;;;;5063573;28;20413;-79
2021/03/14 06:43:30;;;;;;;3.17;2.60;;;3.70;99.90;;;;;;5051678;28;20483;-80
2021/03/14 06:45:56;;;;;;;3.13;2.20;;;3.70;99.90;;;;;;5069385;28;20426;-79
2021/03/14 06:48:26;;;;;;;2.03;1.83;;;3.70;99.90;;;;;;5065743;28;20893;-79
2021/03/14 06:50:52;;;;;;;3.70;2.40;;;3.70;99.90;;;;;;5072834;28;20730;-77
2021/03/14 06:53:24;;;;;;;5.40;2.63;;;3.70;99.90;;;;;;5064339;28;20501;-79
2021/03/14 06:55:52;;;;;;;2.60;2.20;;;3.70;99.90;;;;;;5074744;28;20439;-80
2021/03/14 06:58:18;;;;;;;3.67;2.27;;;3.80;99.90;;;;;;5079663;28;20456;-78
2021/03/14 07:01:11;;;;;;;2.97;2.00;;;3.80;99.90;;;;;;5081206;28;20455;-79
2021/03/14 07:03:38;;;;;;;3.23;1.90;;;3.90;99.90;;;;;;5068380;28;20555;-79
2021/03/14 07:06:23;;;;;;;2.77;1.97;;;4.00;99.90;;;;;;5073158;28;20740;-77
2021/03/14 07:08:54;;;;;;;2.43;2.13;;;4.20;99.90;;;;;;5071742;28;20844;-79
2021/03/14 07:11:41;;;;;;;4.60;2.13;;;4.20;99.90;;;;;;5063788;28;20901;-77
2021/03/14 07:14:15;;;;;;;3.37;2.03;;;4.30;99.90;;;;;;5071701;28;20423;-78
2021/03/14 07:16:44;;;;;;;4.47;2.27;;;4.30;99.90;;;;;;5081348;28;20439;-79
2021/03/14 07:19:14;;;;;;;3.03;2.33;;;4.40;99.90;;;;;;5072829;28;20455;-78
2021/03/14 07:21:40;;;;;;;2.87;2.60;;;4.40;99.90;;;;;;5074722;28;20444;-80
2021/03/14 07:24:11;;;;;;;5.10;2.70;;;4.40;99.90;;;;;;5068748;28;20421;-79
2021/03/14 07:26:39;;;;;;;4.23;2.30;;;4.50;99.90;;;;;;5075851;28;20213;-80
2021/03/14 07:29:05;;;;;;;4.60;1.90;;;4.50;99.90;;;;;;5074530;28;20885;-79
2021/03/14 07:31:33;;;;;;;2.80;1.90;;;4.50;99.90;;;;;;5066588;28;20420;-78
2021/03/14 07:34:00;;;;;;;3.33;2.00;;;4.50;99.90;;;;;;5069361;28;20439;-79
2021/03/14 07:36:25;;;;;;;2.93;2.70;;;4.60;99.90;;;;;;5059570;28;20416;-79
2021/03/14 07:38:51;;;;;;;3.53;1.97;;;4.60;99.90;;;;;;5073295;28;20959;-79
2021/03/14 07:41:16;;;;;;;2.87;2.17;;;4.60;99.90;;;;;;5062749;28;20186;-79
2021/03/14 07:43:42;;;;;;;3.07;2.50;;;4.70;99.90;;;;;;5058640;28;20204;-79
2021/03/14 07:46:08;;;;;;;6.30;2.60;;;4.60;99.90;;;;;;5039376;28;20190;-79
2021/03/14 07:48:36;;;;;;;2.97;2.27;;;4.70;99.90;;;;;;5073687;28;20450;-80
2021/03/14 07:51:02;;;;;;;3.87;2.37;;;4.80;99.90;;;;;;5080830;28;20824;-78
2021/03/14 07:53:28;;;;;;;3.43;1.87;;;4.90;99.90;;;;;;5072870;28;20479;-78
2021/03/14 07:55:58;;;;;;;2.80;2.30;;;5.00;99.90;;;;;;5079326;28;20430;-79
2021/03/14 07:58:24;;;;;;;2.50;2.30;;;5.10;99.90;;;;;;5073564;28;20194;-78
2021/03/14 08:00:50;;;;;;;4.50;2.30;;;5.10;99.90;;;;;;5068012;28;20421;-77
2021/03/14 08:03:16;;;;;;;3.80;1.90;;;5.20;99.90;;;;;;5072364;28;20846;-80
2021/03/14 08:05:53;;;;;;;5.47;2.43;;;5.30;99.90;;;;;;5047025;28;20194;-79
2021/03/14 08:08:25;;;;;;;6.07;2.43;;;5.30;99.90;;;;;;5050324;28;20204;-79
2021/03/14 08:10:52;;;;;;;3.00;2.23;;;5.30;99.90;;;;;;5064382;28;20773;-80
2021/03/14 08:13:30;;;;;;;2.43;2.23;;;5.40;99.90;;;;;;5066165;28;20526;-78
2021/03/14 08:16:10;;;;;;;3.23;2.63;;;5.50;99.90;;;;;;5063407;28;20420;-80
2021/03/14 08:18:46;;;;;;;4.17;3.23;;;5.50;99.90;;;;;;5066743;28;20453;-78
2021/03/14 08:21:23;;;;;;;3.37;2.50;;;5.60;99.90;;;;;;5071223;28;20405;-78
2021/03/14 08:23:59;;;;;;;4.10;2.47;;;5.40;99.90;;;;;;5068853;28;20500;-78
2021/03/14 08:26:26;;;;;;;4.30;3.50;;;5.50;99.90;;;;;;5056763;28;20789;-78
2021/03/14 08:28:53;;;;;;;5.50;2.77;;;5.60;99.90;;;;;;5062553;28;20467;-79
2021/03/14 08:31:48;;;;;;;2.93;2.50;;;5.50;99.90;;;;;;5057489;28;20427;-79
2021/03/14 08:34:26;;;;;;;5.77;2.40;;;5.50;99.90;;;;;;5066456;28;20435;-80
2021/03/14 08:36:53;;;;;;;3.50;2.80;;;5.50;99.90;;;;;;5066133;28;20454;-79
2021/03/14 08:39:23;;;;;;;5.17;2.27;;;5.40;99.90;;;;;;5056921;28;20575;-77
2021/03/14 08:41:58;;;;;;;4.23;2.53;;;5.50;99.90;;;;;;5065467;28;20416;-77
2021/03/14 08:44:41;;;;;;;4.07;2.20;;;5.40;99.90;;;;;;5053048;28;20416;-78
2021/03/14 08:47:15;;;;;;;5.57;2.83;;;5.40;99.90;;;;;;5065680;28;20491;-78
2021/03/14 08:49:47;;;;;;;3.70;2.80;;;5.30;99.90;;;;;;5067618;28;20447;-80
2021/03/14 08:52:13;;;;;;;2.97;2.70;;;5.30;99.90;;;;;;5063674;28;20814;-78
2021/03/14 08:54:51;;;;;;;4.17;2.67;;;5.20;99.90;;;;;;5068132;28;20910;-78
2021/03/14 08:57:18;;;;;;;6.50;3.13;;;5.20;99.90;;;;;;5067186;28;20415;-80
2021/03/14 08:59:52;;;;;;;4.77;4.20;;;5.20;99.90;;;;;;5068619;28;20523;-78
2021/03/14 09:02:27;;;;;;;3.70;2.40;;;5.30;99.90;;;;;;5066185;28;20947;-78
2021/03/14 09:04:53;;;;;;;3.80;3.33;;;5.40;99.90;;;;;;5064882;28;20423;-79
2021/03/14 09:07:20;;;;;;;2.70;2.47;;;5.30;99.90;;;;;;5068558;28;20448;-77
2021/03/14 09:09:46;;;;;;;4.80;3.00;;;5.30;99.90;;;;;;5068113;28;20436;-77
2021/03/14 09:12:14;;;;;;;4.53;3.80;;;5.40;99.90;;;;;;5053329;28;20542;-79
2021/03/14 09:14:44;;;;;;;4.70;2.80;;;5.50;99.90;;;;;;5074340;28;20419;-78
2021/03/14 09:17:19;;;;;;;5.87;3.53;;;5.50;99.90;;;;;;5067480;28;20816;-77
2021/03/14 09:19:48;;;;;;;3.83;3.53;;;5.60;99.90;;;;;;5069350;28;20453;-78
2021/03/14 09:22:25;;;;;;;6.20;3.50;;;5.60;99.90;;;;;;5047150;28;20420;-79
2021/03/14 09:25:04;;;;;;;7.83;4.73;;;5.70;99.90;;;;;;5062475;28;20454;-80
2021/03/14 09:27:32;;;;;;;5.33;4.07;;;5.80;99.90;;;;;;5036315;28;629107;-79
2021/03/14 09:30:07;;;;;;;9.77;5.10;;;5.80;99.90;;;;;;5063505;28;20446;-79
2021/03/14 09:32:38;;;;;;;6.50;4.27;;;5.80;99.90;;;;;;5070136;28;20459;-80
2021/03/14 09:35:15;;;;;;;5.80;5.00;;;5.70;99.90;;;;;;5059889;28;20423;-77
2021/03/14 09:37:42;;;;;;;7.17;5.33;;;5.70;99.90;;;;;;5067725;28;20534;-80
2021/03/14 09:40:20;;;;;;;8.30;4.33;;;5.70;99.90;;;;;;5064932;28;20417;-79
2021/03/14 09:42:49;;;;;;;8.43;6.07;;;5.80;99.90;;;;;;5068347;28;20484;-80
2021/03/14 09:45:20;;;;;;;9.57;4.90;;;5.80;99.90;;;;;;5067587;28;20439;-78
2021/03/14 09:48:03;;;;;;;4.63;3.90;;;5.80;99.90;;;;;;5067669;28;20416;-77
2021/03/14 09:50:31;;;;;;;6.27;4.47;;;5.90;99.90;;;;;;5067025;28;20420;-79
2021/03/14 09:53:00;;;;;;;7.40;5.50;;;5.90;99.90;;;;;;5065644;28;20466;-77
2021/03/14 09:55:29;;;;;;;7.03;5.13;;;5.90;99.90;;;;;;5049190;28;20416;-78
2021/03/14 09:57:56;;;;;;;10.40;4.80;;;5.90;99.90;;;;;;5067347;28;20451;-78
2021/03/14 10:00:23;;;;;;;5.73;4.43;;;5.90;99.90;;;;;;5064100;28;20466;-79
2021/03/14 10:02:49;;;;;;;6.77;3.97;;;5.90;99.90;;;;;;5068908;28;20488;-79
2021/03/14 10:05:16;;;;;;;8.67;4.10;;;5.90;99.90;;;;;;5065932;28;20449;-78
2021/03/14 10:07:44;;;;;;;4.80;2.70;;;5.80;99.90;;;;;;5070142;28;20416;-78
2021/03/14 10:10:13;;;;;;;4.20;3.80;;;5.80;99.90;;;;;;5067944;28;20424;-78
2021/03/14 10:12:39;;;;;;;5.63;3.87;;;5.80;99.90;;;;;;5066915;28;20457;-79
2021/03/14 10:15:06;;;;;;;4.20;3.53;;;5.90;99.90;;;;;;5078643;28;20431;-79
2021/03/14 10:17:33;;;;;;;7.30;4.90;;;5.90;99.90;;;;;;5065784;28;20420;-81
2021/03/14 10:20:00;;;;;;;6.17;4.40;;;5.90;99.90;;;;;;5076212;28;20522;-79
2021/03/14 10:22:32;;;;;;;5.43;3.60;;;5.90;99.90;;;;;;5067244;28;20524;-78
2021/03/14 10:24:58;;;;;;;5.10;4.13;;;6.00;99.90;;;;;;5072532;28;20454;-79
2021/03/14 10:27:24;;;;;;;3.97;3.60;;;6.10;99.90;;;;;;5068393;28;20413;-79
2021/03/14 10:29:58;;;;;;;5.30;3.80;;;6.30;99.90;;;;;;5072505;28;20282;-79
2021/03/14 10:32:27;;;;;;;5.40;3.63;;;6.30;99.90;;;;;;5066788;28;20476;-78
2021/03/14 10:34:58;;;;;;;5.40;3.20;;;6.50;99.90;;;;;;5066952;28;20434;-78
2021/03/14 10:37:33;;;;;;;5.10;3.13;;;6.40;99.90;;;;;;5055940;28;20428;-76
2021/03/14 10:40:06;;;;;;;4.77;3.50;;;6.30;99.90;;;;;;5066278;28;20501;-80
2021/03/14 10:42:40;;;;;;;7.73;4.10;;;6.30;99.90;;;;;;5052915;28;20462;-78
2021/03/14 10:45:15;;;;;;;5.97;3.60;;;6.20;99.90;;;;;;5071250;28;20452;-80
2021/03/14 10:47:41;;;;;;;4.73;3.00;;;6.20;99.90;;;;;;5071974;28;20431;-80
2021/03/14 10:50:11;;;;;;;6.87;3.80;;;6.20;99.90;;;;;;5069238;28;20516;-79
2021/03/14 10:52:38;;;;;;;4.97;3.50;;;6.40;99.90;;;;;;5068675;28;20455;-79
2021/03/14 10:55:24;;;;;;;5.43;3.83;;;6.50;99.90;;;;;;5063242;28;20413;-77
2021/03/14 10:57:50;;;;;;;4.17;3.37;;;6.50;99.90;;;;;;5068417;28;20516;-77
2021/03/14 11:00:20;;;;;;;5.83;3.40;;;6.50;99.90;;;;;;5063630;28;20517;-79
2021/03/14 11:02:49;;;;;;;4.47;3.80;;;6.50;99.90;;;;;;5061659;28;20311;-78
2021/03/14 11:05:20;;;;;;;4.33;3.10;;;6.50;99.90;;;;;;5061855;28;20427;-79
2021/03/14 11:08:00;;;;;;;3.63;2.97;;;6.40;99.90;;;;;;5069550;28;20480;-80
2021/03/14 11:10:25;;;;;;;3.00;2.80;;;6.20;99.90;;;;;;5064119;28;20927;-78
2021/03/14 11:12:51;;;;;;;5.90;4.20;;;6.10;99.90;;;;;;5042278;28;20503;-79
2021/03/14 11:15:32;;;;;;;3.50;3.10;;;6.10;99.90;;;;;;5068683;28;20561;-77
2021/03/14 11:18:04;;;;;;;6.77;4.43;;;6.20;99.90;;;;;;5043733;28;20234;-79
2021/03/14 11:20:30;;;;;;;9.37;4.27;;;6.20;99.90;;;;;;5066483;28;20413;-78
2021/03/14 11:22:57;;;;;;;7.00;5.67;;;6.30;99.90;;;;;;5063571;28;20419;-78
2021/03/14 11:25:23;;;;;;;7.47;4.80;;;6.40;99.90;;;;;;5055545;28;20198;-79
2021/03/14 11:27:55;;;;;;;6.70;4.50;;;6.40;99.90;;;;;;5060136;28;20487;-78
2021/03/14 11:30:23;;;;;;;4.50;3.90;;;6.60;99.90;;;;;;5049806;28;20448;-78
2021/03/14 11:32:48;;;;;;;8.07;5.40;;;6.70;99.90;;;;;;5064105;28;20806;-79
2021/03/14 11:35:15;;;;;;;9.60;5.70;;;6.80;99.90;;;;;;5064210;28;20431;-78
2021/03/14 11:37:41;;;;;;;6.57;4.60;;;6.80;99.90;;;;;;5065328;28;20170;-78
2021/03/14 11:40:08;;;;;;;6.53;4.40;;;6.90;99.90;;;;;;5067008;28;20439;-78
2021/03/14 11:42:35;;;;;;;8.00;4.10;;;6.70;99.90;;;;;;5065853;28;20192;-79
2021/03/14 11:45:01;;;;;;;5.80;4.00;;;6.60;99.90;;;;;;5064521;28;20427;-78
2021/03/14 11:47:26;;;;;;;7.20;4.30;;;6.40;99.90;;;;;;5065772;28;20424;-79
2021/03/14 11:49:52;;;;;;;7.43;4.10;;;6.40;99.90;;;;;;5063334;28;20269;-77
2021/03/14 11:52:18;;;;;;;7.00;4.67;;;6.30;99.90;;;;;;5065326;28;20209;-78
2021/03/14 11:54:43;;;;;;;4.33;3.30;;;6.20;99.90;;;;;;5064793;28;20194;-79
2021/03/14 11:57:11;;;;;;;6.60;3.77;;;6.20;99.90;;;;;;5067371;28;20655;-79
2021/03/14 11:59:37;;;;;;;6.17;4.57;;;6.20;99.90;;;;;;5066948;28;20219;-78
2021/03/14 12:02:03;;;;;;;8.70;4.67;;;6.20;99.90;;;;;;5046961;28;20826;-79
2021/03/14 12:04:29;;;;;;;5.90;4.73;;;6.20;99.90;;;;;;5060182;28;20443;-80
2021/03/14 12:06:54;;;;;;;4.93;4.50;;;6.10;99.90;;;;;;5062707;28;20960;-79
2021/03/14 12:09:20;;;;;;;4.77;3.30;;;6.10;99.90;;;;;;5064806;28;20690;-77
2021/03/14 12:11:46;;;;;;;5.00;3.87;;;6.20;99.90;;;;;;5064520;28;20193;-79
2021/03/14 12:14:12;;;;;;;4.13;3.73;;;6.20;99.90;;;;;;5062820;28;20261;-80
2021/03/14 12:16:37;;;;;;;4.57;4.10;;;6.20;99.90;;;;;;5065372;28;20723;-81
2021/03/14 12:19:03;;;;;;;3.53;3.23;;;6.20;99.90;;;;;;5064244;28;20200;-79
2021/03/14 12:21:29;;;;;;;3.63;2.80;;;6.30;99.90;;;;;;5063888;28;20274;-78
2021/03/14 12:23:55;;;;;;;3.13;2.43;;;6.30;99.90;;;;;;5058150;28;20462;-78
2021/03/14 12:26:21;;;;;;;3.67;2.77;;;6.40;99.90;;;;;;5066234;28;20693;-79
2021/03/14 12:28:47;;;;;;;3.10;2.80;;;6.50;99.90;;;;;;5064361;28;20230;-79
2021/03/14 12:31:12;;;;;;;3.13;2.20;;;6.60;99.90;;;;;;5075441;28;20412;-78
2021/03/14 12:33:38;;;;;;;3.00;2.33;;;6.80;99.90;;;;;;5077966;28;20451;-79
2021/03/14 12:36:04;;;;;;;2.90;2.63;;;7.00;99.90;;;;;;5062273;28;20191;-79
2021/03/14 12:38:30;;;;;;;1.80;1.70;;;7.10;99.90;;;;;;5069714;28;20202;-79
2021/03/14 12:40:55;;;;;;;2.03;1.90;;;7.40;99.90;;;;;;5068329;28;20424;-82
2021/03/14 12:43:21;;;;;;;2.23;2.03;;;7.80;99.90;;;;;;5066782;28;20254;-80
2021/03/14 12:45:49;;;;;;;2.30;2.10;;;8.00;99.90;;;;;;5072063;28;20185;-79
2021/03/14 12:48:18;;;;;;;3.40;2.70;;;8.10;99.90;;;;;;5075260;28;20450;-78
2021/03/14 12:50:45;;;;;;;2.10;1.90;;;8.00;99.90;;;;;;5079010;28;20427;-79
2021/03/14 12:53:10;;;;;;;2.50;2.30;;;7.90;99.90;;;;;;5072717;28;20498;-78
2021/03/14 12:55:36;;;;;;;3.60;2.83;;;7.70;99.90;;;;;;5069867;28;20788;-79
2021/03/14 12:58:02;;;;;;;5.17;3.57;;;7.60;99.90;;;;;;5062200;28;20573;-78
2021/03/14 13:00:29;;;;;;;2.23;2.07;;;7.50;99.90;;;;;;5061174;28;20241;-79
2021/03/14 13:02:54;;;;;;;6.13;3.23;;;7.30;99.90;;;;;;5067511;28;20424;-80
2021/03/14 13:05:20;;;;;;;2.30;2.10;;;7.10;99.90;;;;;;5061315;28;20470;-80